M-RH(METAR)
03/23 15:00
METAR M-RH 230600Z 02003KT 9999 FEW030 BKN070 BKN230 12/05 Q1017 RMK
2CU030 5AC070 A3003=
戻る
トップページへ戻る
IMOC Co,.Ltd.